createdAt,value
2022-10-05T00:00:54.253Z,5.05
2022-10-05T00:04:11.156Z,4.30
2022-10-05T00:07:19.887Z,4.80
2022-10-05T00:10:24.894Z,3.80
2022-10-05T00:13:31.347Z,4.38
2022-10-05T00:16:36.154Z,4.20
2022-10-05T00:19:40.336Z,3.88
2022-10-05T00:22:44.400Z,4.83
2022-10-05T00:25:48.761Z,5.53
2022-10-05T00:28:54.682Z,3.92
2022-10-05T00:31:59.682Z,4.78
2022-10-05T00:35:03.404Z,6.40
2022-10-05T00:38:07.214Z,4.40
2022-10-05T00:41:32.827Z,5.50
2022-10-05T00:44:52.364Z,5.10
2022-10-05T00:48:27.090Z,4.40
2022-10-05T00:51:34.470Z,4.60
2022-10-05T00:54:48.021Z,4.30
2022-10-05T00:58:22.097Z,3.30
2022-10-05T01:01:58.226Z,3.53
2022-10-05T01:05:22.267Z,3.55
2022-10-05T01:08:38.520Z,4.50
2022-10-05T01:11:48.412Z,3.83
2022-10-05T01:15:13.831Z,4.10
2022-10-05T01:18:39.188Z,3.45
2022-10-05T01:22:21.391Z,3.15
2022-10-05T01:25:52.491Z,3.97
2022-10-05T01:29:20.768Z,3.07
2022-10-05T01:33:03.737Z,3.50
2022-10-05T01:36:35.728Z,3.75
2022-10-05T01:40:28.738Z,4.28
2022-10-05T01:43:53.677Z,4.28
2022-10-05T01:47:18.276Z,3.90
2022-10-05T01:50:33.510Z,4.20
2022-10-05T01:54:03.915Z,5.97
2022-10-05T01:57:26.198Z,5.57
2022-10-05T02:00:30.569Z,6.10
2022-10-05T02:03:48.375Z,6.00
2022-10-05T02:06:53.540Z,5.53
2022-10-05T02:10:31.622Z,4.18
2022-10-05T02:13:48.145Z,5.22
2022-10-05T02:16:53.868Z,6.60
2022-10-05T02:20:04.831Z,6.23
2022-10-05T02:23:17.631Z,6.53
2022-10-05T02:26:21.973Z,6.63
2022-10-05T02:29:31.583Z,5.07
2022-10-05T02:32:43.160Z,6.80
2022-10-05T02:35:46.620Z,5.90
2022-10-05T02:39:00.720Z,5.73
2022-10-05T02:42:16.931Z,3.67
2022-10-05T02:45:32.659Z,4.47
2022-10-05T02:49:04.217Z,4.68
2022-10-05T02:52:18.412Z,2.30
2022-10-05T02:55:46.915Z,2.10
2022-10-05T02:59:14.929Z,3.17
2022-10-05T03:02:33.485Z,2.97
2022-10-05T03:05:47.568Z,4.10
2022-10-05T03:09:02.483Z,2.20
2022-10-05T03:12:26.223Z,2.50
2022-10-05T03:15:42.934Z,2.10
2022-10-05T03:19:28.981Z,2.75
2022-10-05T03:22:45.301Z,2.20
2022-10-05T03:25:54.504Z,2.80
2022-10-05T03:29:25.392Z,2.20
2022-10-05T03:32:32.110Z,2.90
2022-10-05T03:36:04.404Z,2.65
2022-10-05T03:39:11.775Z,2.40
2022-10-05T03:42:29.988Z,2.40
2022-10-05T03:45:39.489Z,2.23
2022-10-05T03:48:58.352Z,2.10
2022-10-05T03:52:09.989Z,2.03
2022-10-05T03:55:34.944Z,2.10
2022-10-05T03:58:51.951Z,2.00
2022-10-05T04:01:56.987Z,2.27
2022-10-05T04:05:06.405Z,2.20
2022-10-05T04:08:55.952Z,3.17
2022-10-05T04:12:17.289Z,2.45
2022-10-05T04:15:30.999Z,2.27
2022-10-05T04:18:42.473Z,2.10
2022-10-05T04:22:02.443Z,2.00
2022-10-05T04:25:24.634Z,2.10
2022-10-05T04:28:54.359Z,1.85
2022-10-05T04:32:01.677Z,3.30
2022-10-05T04:35:26.761Z,2.60
2022-10-05T04:38:51.822Z,2.70
2022-10-05T04:42:05.845Z,2.50
2022-10-05T04:45:46.445Z,3.17
2022-10-05T04:49:00.188Z,1.70
2022-10-05T04:52:14.684Z,2.00
2022-10-05T04:55:57.509Z,1.40
2022-10-05T04:59:25.841Z,2.03
2022-10-05T05:03:10.619Z,2.22
2022-10-05T05:06:35.964Z,2.50
2022-10-05T05:09:48.854Z,2.33
2022-10-05T05:13:35.251Z,1.90
2022-10-05T05:16:42.291Z,2.20
2022-10-05T05:20:10.963Z,2.28
2022-10-05T05:23:55.768Z,2.87
2022-10-05T05:27:11.472Z,2.70
2022-10-05T05:30:25.696Z,2.40
2022-10-05T05:33:37.968Z,2.50
2022-10-05T05:36:56.403Z,2.53
2022-10-05T05:40:16.548Z,2.67
2022-10-05T05:43:27.759Z,2.70
2022-10-05T05:47:02.343Z,2.50
2022-10-05T05:50:21.499Z,2.00
2022-10-05T05:53:45.487Z,1.67
2022-10-05T05:57:11.823Z,1.80
2022-10-05T06:00:16.116Z,1.90
2022-10-05T06:03:34.235Z,1.98
2022-10-05T06:06:43.338Z,2.13
2022-10-05T06:09:54.408Z,1.85
2022-10-05T06:13:14.252Z,2.53
2022-10-05T06:16:33.352Z,2.00
2022-10-05T06:19:39.368Z,2.22
2022-10-05T06:22:47.070Z,2.40
2022-10-05T06:26:12.371Z,2.55
2022-10-05T06:29:24.254Z,2.33
2022-10-05T06:32:31.314Z,2.00
2022-10-05T06:36:07.483Z,1.70
2022-10-05T06:39:54.630Z,3.13
2022-10-05T06:43:10.651Z,1.80
2022-10-05T06:46:42.543Z,3.20
2022-10-05T06:50:39.125Z,2.63
2022-10-05T06:54:24.104Z,2.50
2022-10-05T06:57:45.836Z,2.30
2022-10-05T07:01:11.540Z,3.50
2022-10-05T07:04:37.773Z,1.20
2022-10-05T07:08:04.919Z,0.67
2022-10-05T07:11:42.042Z,2.17
2022-10-05T07:15:10.457Z,1.80
2022-10-05T07:18:23.485Z,1.98
2022-10-05T07:21:56.022Z,1.80
2022-10-05T07:25:03.353Z,1.90
2022-10-05T07:28:23.306Z,1.67
2022-10-05T07:31:38.874Z,2.42
2022-10-05T07:35:35.385Z,1.75
2022-10-05T07:38:46.675Z,1.60
2022-10-05T07:42:24.265Z,2.10
2022-10-05T07:45:47.589Z,1.65
2022-10-05T07:49:03.859Z,1.73
2022-10-05T07:52:45.700Z,2.08
2022-10-05T07:55:54.928Z,2.37
2022-10-05T07:59:08.341Z,2.20
2022-10-05T08:03:05.411Z,2.22
2022-10-05T08:06:15.195Z,2.00
2022-10-05T08:09:48.163Z,3.22
2022-10-05T08:13:09.182Z,1.80
2022-10-05T08:16:14.131Z,2.03
2022-10-05T08:19:27.005Z,2.40
2022-10-05T08:22:41.602Z,1.88
2022-10-05T08:25:58.901Z,2.95
2022-10-05T08:29:06.711Z,4.17
2022-10-05T08:32:51.268Z,3.77
2022-10-05T08:36:13.145Z,3.45
2022-10-05T08:39:20.517Z,3.63
2022-10-05T08:42:37.895Z,3.85
2022-10-05T08:46:10.162Z,2.30
2022-10-05T08:49:22.244Z,2.60
2022-10-05T08:52:47.748Z,2.63
2022-10-05T08:56:28.827Z,3.75
2022-10-05T08:59:56.696Z,3.85
2022-10-05T09:03:24.101Z,3.47
2022-10-05T09:06:47.954Z,2.03
2022-10-05T09:10:14.559Z,1.90
2022-10-05T09:13:20.524Z,1.50
2022-10-05T09:16:42.368Z,2.25
2022-10-05T09:20:24.177Z,4.37
2022-10-05T09:23:43.871Z,3.37
2022-10-05T09:27:14.916Z,3.05
2022-10-05T09:30:29.388Z,2.88
2022-10-05T09:33:58.884Z,7.10
2022-10-05T09:37:30.909Z,2.70
2022-10-05T09:40:42.004Z,2.43
2022-10-05T09:44:18.050Z,2.40
2022-10-05T09:47:30.802Z,5.47
2022-10-05T09:50:54.948Z,3.03
2022-10-05T09:54:11.298Z,3.43
2022-10-05T09:57:37.542Z,5.00
2022-10-05T10:01:16.027Z,9.25
2022-10-05T10:05:11.164Z,8.55
2022-10-05T10:08:21.180Z,8.90
2022-10-05T10:11:44.970Z,5.97
2022-10-05T10:14:51.493Z,6.73
2022-10-05T10:18:13.696Z,8.60
2022-10-05T10:21:26.575Z,9.02
2022-10-05T10:24:57.147Z,9.55
2022-10-05T10:28:30.864Z,9.87
2022-10-05T10:31:59.228Z,8.33
2022-10-05T10:35:08.551Z,8.27
2022-10-05T10:38:27.074Z,8.57
2022-10-05T10:41:37.932Z,9.15
2022-10-05T10:45:13.836Z,8.03
2022-10-05T10:48:20.021Z,7.47
2022-10-05T10:51:31.721Z,4.20
2022-10-05T10:54:53.801Z,5.40
2022-10-05T10:58:39.151Z,6.65
2022-10-05T11:01:54.621Z,5.03
2022-10-05T11:05:22.064Z,4.00
2022-10-05T11:09:03.838Z,4.60
2022-10-05T11:12:10.805Z,5.25
2022-10-05T11:15:52.870Z,4.50
2022-10-05T11:19:20.690Z,3.53
2022-10-05T11:22:36.000Z,4.57
2022-10-05T11:26:00.496Z,3.42
2022-10-05T11:29:26.891Z,2.53
2022-10-05T11:32:54.365Z,3.80
2022-10-05T11:36:20.732Z,4.40
2022-10-05T11:39:40.232Z,4.43
2022-10-05T11:43:12.357Z,4.38
2022-10-05T11:46:29.703Z,3.88
2022-10-05T11:49:40.554Z,4.55
2022-10-05T11:53:02.307Z,5.30
2022-10-05T11:56:15.519Z,5.03
2022-10-05T11:59:28.174Z,3.58
2022-10-05T12:02:56.480Z,7.40
2022-10-05T12:06:28.964Z,5.55
2022-10-05T12:10:03.589Z,4.17
2022-10-05T12:13:21.032Z,3.53
2022-10-05T12:16:32.987Z,6.05
2022-10-05T12:20:20.169Z,5.40
2022-10-05T12:23:47.334Z,6.00
2022-10-05T12:27:26.288Z,3.63
2022-10-05T12:30:54.933Z,5.50
2022-10-05T12:34:43.088Z,5.90
2022-10-05T12:38:26.876Z,4.85
2022-10-05T12:41:43.541Z,4.50
2022-10-05T12:45:10.850Z,4.40
2022-10-05T12:48:28.454Z,4.80
2022-10-05T12:51:57.535Z,4.85
2022-10-05T12:55:10.662Z,5.93
2022-10-05T12:58:22.542Z,4.80
2022-10-05T13:01:45.251Z,4.10
2022-10-05T13:05:03.115Z,5.37
2022-10-05T13:08:37.554Z,3.72
2022-10-05T13:11:56.867Z,6.50
2022-10-05T13:15:08.895Z,5.63
2022-10-05T13:18:55.178Z,4.27
2022-10-05T13:22:09.105Z,5.53
2022-10-05T13:25:31.157Z,6.13
2022-10-05T13:28:57.081Z,4.80
2022-10-05T13:32:14.657Z,6.00
2022-10-05T13:35:44.141Z,4.87
2022-10-05T13:38:58.930Z,4.00
2022-10-05T13:42:22.711Z,3.70
2022-10-05T13:45:46.334Z,7.00
2022-10-05T13:49:05.973Z,6.13
2022-10-05T13:52:38.962Z,4.40
2022-10-05T13:56:02.815Z,3.30
2022-10-05T13:59:30.483Z,4.15
2022-10-05T14:02:42.440Z,5.25
2022-10-05T14:05:58.242Z,4.68
2022-10-05T14:09:02.553Z,6.43
2022-10-05T14:12:06.170Z,6.20
2022-10-05T14:15:42.229Z,6.07
2022-10-05T14:18:53.297Z,7.10
2022-10-05T14:22:01.091Z,5.40
2022-10-05T14:25:08.752Z,5.80
2022-10-05T14:28:13.706Z,5.37
2022-10-05T14:31:32.806Z,5.30
2022-10-05T14:34:57.879Z,5.18
2022-10-05T14:38:08.714Z,4.90
2022-10-05T14:41:13.648Z,4.27
2022-10-05T14:48:02.633Z,4.72
2022-10-05T14:51:12.244Z,4.93
2022-10-05T14:54:45.499Z,5.15
2022-10-05T14:58:15.096Z,6.07
2022-10-05T15:01:40.210Z,5.17
2022-10-05T15:04:52.592Z,5.28
2022-10-05T15:08:02.678Z,5.00
2022-10-05T15:11:19.173Z,5.25
2022-10-05T15:14:27.062Z,4.70
2022-10-05T15:17:44.516Z,4.33
2022-10-05T15:20:47.800Z,4.30
